Time;durP1;ratioP1;P1;durP2;ratioP2;P2;SDS_P1;SDS_P2;PMS_P1;PMS_P2;Temp;Humidity;BMP_temperature;BMP_pressure;BME280_temperature;BME280_humidity;BME280_pressure;Samples;Min_cycle;Max_cycle;Signal;HPM_P1;HPM_P2
2022/03/03 00:01:24;;;;;;;15.85;9.10;;;4.50;97.90;;;;;;5093886;28;20028;-77
2022/03/03 00:03:50;;;;;;;18.90;10.85;;;4.60;97.70;;;;;;5092370;28;20048;-77
2022/03/03 00:06:15;;;;;;;13.60;9.60;;;4.50;97.70;;;;;;5093735;28;20020;-76
2022/03/03 00:08:41;;;;;;;12.90;9.65;;;4.50;97.80;;;;;;5093111;28;20031;-75
2022/03/03 00:11:06;;;;;;;14.98;10.23;;;4.50;97.20;;;;;;5093080;28;20024;-76
2022/03/03 00:13:32;;;;;;;17.50;10.57;;;4.50;98.10;;;;;;5093982;28;20016;-76
2022/03/03 00:15:57;;;;;;;15.13;10.52;;;4.60;97.40;;;;;;5092563;28;20035;-76
2022/03/03 00:18:23;;;;;;;14.32;9.30;;;4.50;97.90;;;;;;5092726;28;20159;-76
2022/03/03 00:20:48;;;;;;;20.50;11.05;;;4.50;98.30;;;;;;5092588;28;20070;-75
2022/03/03 00:23:14;;;;;;;14.10;10.30;;;4.40;98.20;;;;;;5093356;28;20066;-76
2022/03/03 00:25:39;;;;;;;12.07;9.25;;;4.40;98.60;;;;;;5092332;28;20020;-76
2022/03/03 00:28:05;;;;;;;13.32;9.82;;;4.40;98.40;;;;;;5093209;28;20043;-75
2022/03/03 00:30:31;;;;;;;14.82;9.02;;;4.40;98.90;;;;;;5093066;28;20020;-76
2022/03/03 00:32:56;;;;;;;16.05;8.98;;;4.40;98.20;;;;;;5092155;28;20024;-77
2022/03/03 00:35:22;;;;;;;13.15;9.23;;;4.30;99.40;;;;;;5093028;28;20020;-76
2022/03/03 00:37:47;;;;;;;17.83;10.77;;;4.30;99.10;;;;;;5092464;28;20387;-76
2022/03/03 00:40:13;;;;;;;13.60;9.32;;;4.40;98.40;;;;;;5092380;28;20020;-76
2022/03/03 00:42:39;;;;;;;16.85;10.15;;;4.30;98.80;;;;;;5092552;28;20028;-76
2022/03/03 00:45:08;;;;;;;12.07;8.98;;;4.20;98.90;;;;;;5092897;28;20103;-75
2022/03/03 00:47:33;;;;;;;18.13;9.13;;;4.20;99.00;;;;;;5092509;28;20044;-76
2022/03/03 00:49:59;;;;;;;16.65;10.02;;;4.20;98.90;;;;;;5093118;28;20024;-76
2022/03/03 00:52:24;;;;;;;18.20;10.63;;;4.20;99.50;;;;;;5093561;28;20115;-76
2022/03/03 00:54:50;;;;;;;16.10;10.35;;;4.20;99.80;;;;;;5092438;28;20048;-76
2022/03/03 00:57:16;;;;;;;16.08;10.75;;;4.20;99.60;;;;;;5093214;28;20024;-77
2022/03/03 00:59:41;;;;;;;16.15;9.35;;;4.10;99.90;;;;;;5093270;28;20065;-76
2022/03/03 01:02:07;;;;;;;17.67;10.48;;;4.10;99.90;;;;;;5092756;28;20073;-76
2022/03/03 01:04:33;;;;;;;13.05;9.15;;;4.10;99.90;;;;;;5092638;28;20125;-77
2022/03/03 01:06:58;;;;;;;14.55;9.98;;;4.00;99.90;;;;;;5092138;28;20043;-76
2022/03/03 01:09:24;;;;;;;15.38;10.00;;;4.00;99.90;;;;;;5093097;28;20475;-76
2022/03/03 01:11:49;;;;;;;14.30;10.02;;;3.90;99.90;;;;;;5092861;28;20493;-76
2022/03/03 01:14:21;;;;;;;16.17;11.10;;;3.90;99.90;;;;;;5092615;28;20031;-78
2022/03/03 01:16:47;;;;;;;17.20;9.73;;;3.90;99.90;;;;;;5092741;28;20031;-75
2022/03/03 01:19:12;;;;;;;15.10;10.60;;;3.90;99.90;;;;;;5094298;28;20074;-75
2022/03/03 01:21:38;;;;;;;17.42;10.75;;;3.90;99.90;;;;;;5092035;28;20486;-75
2022/03/03 01:24:04;;;;;;;17.60;10.45;;;3.80;99.90;;;;;;5093041;28;20052;-76
2022/03/03 01:26:30;;;;;;;16.60;10.48;;;3.90;99.90;;;;;;5092953;28;20099;-76
2022/03/03 01:28:55;;;;;;;16.77;10.15;;;3.80;99.90;;;;;;5091613;28;20386;-77
2022/03/03 01:31:21;;;;;;;16.17;10.32;;;3.80;99.90;;;;;;5094020;28;20027;-76
2022/03/03 01:33:46;;;;;;;14.95;9.65;;;3.70;99.90;;;;;;5096591;28;20036;-77
2022/03/03 01:36:12;;;;;;;16.27;9.68;;;3.70;99.90;;;;;;5096299;28;20043;-76
2022/03/03 01:38:37;;;;;;;22.52;10.60;;;3.70;99.90;;;;;;5096131;28;20399;-76
2022/03/03 01:41:03;;;;;;;18.10;11.65;;;3.70;99.90;;;;;;5096984;28;20467;-77
2022/03/03 01:43:28;;;;;;;17.52;10.88;;;3.70;99.90;;;;;;5096089;28;20036;-76
2022/03/03 01:45:54;;;;;;;17.27;10.40;;;3.60;99.90;;;;;;5096777;28;20020;-75
2022/03/03 01:48:20;;;;;;;19.27;10.00;;;3.60;99.90;;;;;;5096742;28;20089;-75
2022/03/03 01:50:45;;;;;;;20.30;10.80;;;3.50;99.90;;;;;;5096116;28;20016;-76
2022/03/03 01:53:11;;;;;;;15.38;10.63;;;3.50;99.90;;;;;;5097676;28;20024;-76
2022/03/03 01:55:36;;;;;;;19.05;10.57;;;3.50;99.90;;;;;;5096322;28;20525;-76
2022/03/03 01:58:04;;;;;;;17.23;10.65;;;3.50;99.90;;;;;;5095229;28;20028;-77
2022/03/03 02:00:30;;;;;;;17.10;10.88;;;3.50;99.90;;;;;;5096303;28;20032;-76
2022/03/03 02:02:55;;;;;;;19.17;11.07;;;3.50;99.90;;;;;;5095747;28;20508;-76
2022/03/03 02:05:21;;;;;;;18.67;12.40;;;3.40;99.90;;;;;;5075213;28;20043;-76
2022/03/03 02:07:47;;;;;;;20.15;11.38;;;3.40;99.90;;;;;;5075919;28;20476;-75
2022/03/03 02:10:12;;;;;;;17.80;11.38;;;3.30;99.90;;;;;;5075684;28;20498;-76
2022/03/03 02:12:38;;;;;;;20.50;11.38;;;3.30;99.90;;;;;;5075854;28;20096;-77
2022/03/03 02:15:04;;;;;;;20.85;11.45;;;3.30;99.90;;;;;;5075511;28;20403;-76
2022/03/03 02:17:29;;;;;;;16.52;10.73;;;3.30;99.90;;;;;;5074986;28;20024;-77
2022/03/03 02:19:55;;;;;;;17.88;10.63;;;3.20;99.90;;;;;;5075549;28;20075;-76
2022/03/03 02:22:21;;;;;;;18.90;11.57;;;3.10;99.90;;;;;;5075642;28;20028;-76
2022/03/03 02:24:46;;;;;;;18.88;10.68;;;3.10;99.90;;;;;;5074709;28;20074;-76
2022/03/03 02:27:12;;;;;;;17.50;10.57;;;3.10;99.90;;;;;;5076025;28;20074;-76
2022/03/03 02:29:40;;;;;;;20.70;12.20;;;3.10;99.90;;;;;;5075278;28;20036;-76
2022/03/03 02:32:07;;;;;;;19.08;10.50;;;3.10;99.90;;;;;;5074960;28;20374;-77
2022/03/03 02:34:34;;;;;;;17.73;10.57;;;3.10;99.90;;;;;;5075424;28;20111;-76
2022/03/03 02:36:59;;;;;;;21.98;11.85;;;3.00;99.90;;;;;;5075110;28;20025;-76
2022/03/03 02:39:25;;;;;;;18.50;12.07;;;3.00;99.90;;;;;;5074973;28;20024;-76
2022/03/03 02:41:51;;;;;;;19.65;12.18;;;3.00;99.90;;;;;;5075164;28;20120;-76
2022/03/03 02:44:17;;;;;;;16.63;11.35;;;3.10;99.90;;;;;;5074507;28;20017;-76
2022/03/03 02:46:42;;;;;;;20.33;11.45;;;3.00;99.90;;;;;;5073878;28;20111;-77
2022/03/03 02:49:09;;;;;;;17.10;11.45;;;3.00;99.90;;;;;;5074672;28;20469;-77
2022/03/03 02:51:36;;;;;;;21.20;12.23;;;3.00;99.90;;;;;;5075065;28;20017;-76
2022/03/03 02:54:02;;;;;;;18.70;11.75;;;3.00;99.90;;;;;;5073918;28;20055;-77
2022/03/03 02:56:27;;;;;;;20.98;12.02;;;3.00;99.90;;;;;;5074984;28;20043;-77
2022/03/03 02:58:53;;;;;;;20.35;12.23;;;3.00;99.90;;;;;;5074312;28;20099;-76
2022/03/03 03:01:18;;;;;;;21.10;13.18;;;3.00;99.90;;;;;;5073720;28;20044;-77
2022/03/03 03:03:44;;;;;;;22.83;11.88;;;3.00;99.90;;;;;;5073963;28;20496;-76
2022/03/03 03:06:14;;;;;;;19.80;12.07;;;2.90;99.90;;;;;;5074694;28;20070;-76
2022/03/03 03:08:40;;;;;;;;;;;2.90;99.90;;;;;;5074818;28;20412;-77
2022/03/03 03:11:06;;;;;;;19.92;11.52;;;2.90;99.90;;;;;;5075150;28;19904;-76
2022/03/03 03:13:31;;;;;;;19.75;11.95;;;2.90;99.90;;;;;;5074905;28;20024;-76
2022/03/03 03:15:57;;;;;;;23.48;12.07;;;2.90;99.90;;;;;;5074931;28;20021;-76
2022/03/03 03:18:23;;;;;;;19.10;12.55;;;2.90;99.90;;;;;;5074751;28;20033;-76
2022/03/03 03:20:55;;;;;;;22.23;12.45;;;2.90;99.90;;;;;;5074511;28;20040;-76
2022/03/03 03:23:23;;;;;;;18.63;11.55;;;2.80;99.90;;;;;;5074534;28;20499;-76
2022/03/03 03:25:49;;;;;;;20.63;12.15;;;2.80;99.90;;;;;;5074450;28;20029;-76
2022/03/03 03:28:16;;;;;;;20.60;13.82;;;2.80;99.90;;;;;;5073986;28;20064;-76
2022/03/03 03:30:42;;;;;;;20.48;13.07;;;2.70;99.90;;;;;;5073727;28;20024;-76
2022/03/03 03:33:08;;;;;;;28.88;13.77;;;2.70;99.90;;;;;;5074095;28;20035;-76
2022/03/03 03:35:34;;;;;;;21.88;12.30;;;2.70;99.90;;;;;;5072937;28;20103;-77
2022/03/03 03:38:00;;;;;;;22.40;12.30;;;2.60;99.90;;;;;;5073655;28;20031;-76
2022/03/03 03:40:26;;;;;;;19.35;12.40;;;2.70;99.90;;;;;;5073667;28;20047;-76
2022/03/03 03:42:52;;;;;;;20.83;13.20;;;2.70;99.90;;;;;;5072926;28;20047;-76
2022/03/03 03:45:18;;;;;;;20.48;12.73;;;2.70;99.90;;;;;;5073444;28;20052;-75
2022/03/03 03:47:43;;;;;;;20.45;11.70;;;2.60;99.90;;;;;;5073268;28;20031;-75
2022/03/03 03:50:14;;;;;;;21.50;12.93;;;2.60;99.90;;;;;;5072974;28;20028;-76
2022/03/03 03:52:41;;;;;;;19.80;12.35;;;2.60;99.90;;;;;;5073174;28;20063;-75
2022/03/03 03:55:09;;;;;;;20.98;12.35;;;2.60;99.90;;;;;;5072604;28;20029;-75
2022/03/03 03:57:35;;;;;;;21.38;13.57;;;2.60;99.90;;;;;;5072818;28;20029;-76
2022/03/03 04:00:02;;;;;;;23.95;12.63;;;2.60;99.90;;;;;;5073213;28;20025;-74
2022/03/03 04:02:28;;;;;;;26.13;13.25;;;2.60;99.90;;;;;;5073303;28;20036;-77
2022/03/03 04:04:54;;;;;;;19.73;12.25;;;2.50;99.90;;;;;;5072455;28;20040;-77
2022/03/03 04:07:19;;;;;;;29.52;15.65;;;2.50;99.90;;;;;;5073491;28;20025;-76
2022/03/03 04:09:45;;;;;;;22.55;13.05;;;2.50;99.90;;;;;;5072309;28;20075;-76
2022/03/03 04:12:11;;;;;;;23.00;13.05;;;2.50;99.90;;;;;;5073458;28;20021;-76
2022/03/03 04:14:37;;;;;;;24.00;12.23;;;2.50;99.90;;;;;;5073348;28;20438;-75
2022/03/03 04:17:03;;;;;;;21.98;13.02;;;2.40;99.90;;;;;;5072968;28;20017;-77
2022/03/03 04:19:29;;;;;;;21.48;12.32;;;2.40;99.90;;;;;;5073100;28;20373;-76
2022/03/03 04:21:54;;;;;;;23.95;13.30;;;2.40;99.90;;;;;;5072830;28;20035;-75
2022/03/03 04:24:20;;;;;;;20.92;13.40;;;2.50;99.90;;;;;;5072569;28;20108;-76
2022/03/03 04:26:45;;;;;;;21.17;13.68;;;2.40;99.90;;;;;;5072795;28;20070;-77
2022/03/03 04:29:11;;;;;;;20.23;12.73;;;2.40;99.90;;;;;;5072634;28;20047;-77
2022/03/03 04:31:37;;;;;;;22.70;12.95;;;2.40;99.90;;;;;;5072336;28;20358;-75
2022/03/03 04:34:02;;;;;;;27.13;14.95;;;2.40;99.90;;;;;;5072765;28;20031;-75
2022/03/03 04:36:28;;;;;;;20.17;13.57;;;2.30;99.90;;;;;;5072952;28;20029;-75
2022/03/03 04:38:53;;;;;;;20.92;13.13;;;2.30;99.90;;;;;;5072234;28;20031;-76
2022/03/03 04:41:19;;;;;;;21.00;13.32;;;2.30;99.90;;;;;;5072750;28;20020;-76
2022/03/03 04:43:45;;;;;;;22.20;13.43;;;2.30;99.90;;;;;;5072650;28;20072;-76
2022/03/03 04:46:10;;;;;;;21.35;13.63;;;2.30;99.90;;;;;;5072425;28;20021;-76
2022/03/03 04:48:36;;;;;;;22.40;13.82;;;2.20;99.90;;;;;;5072477;28;20082;-75
2022/03/03 04:51:02;;;;;;;19.58;12.90;;;2.10;99.90;;;;;;5072145;28;20020;-76
2022/03/03 04:53:28;;;;;;;22.67;13.45;;;2.10;99.90;;;;;;5071833;28;20056;-77
2022/03/03 04:55:55;;;;;;;21.15;13.00;;;2.10;99.90;;;;;;5073019;28;20025;-77
2022/03/03 04:58:21;;;;;;;24.13;14.50;;;2.10;99.90;;;;;;5073334;28;20028;-76
2022/03/03 05:00:47;;;;;;;23.42;13.60;;;2.10;99.90;;;;;;5072586;28;20025;-76
2022/03/03 05:03:12;;;;;;;22.92;13.63;;;2.10;99.90;;;;;;5072933;28;20075;-76
2022/03/03 05:05:38;;;;;;;24.70;12.77;;;2.00;99.90;;;;;;5072290;28;20044;-75
2022/03/03 05:08:04;;;;;;;22.88;13.57;;;2.10;99.90;;;;;;5071542;28;20582;-75
2022/03/03 05:10:29;;;;;;;23.83;14.07;;;2.00;99.90;;;;;;5072240;28;20020;-78
2022/03/03 05:12:55;;;;;;;24.48;13.20;;;2.00;99.90;;;;;;5072244;28;20021;-77
2022/03/03 05:15:20;;;;;;;28.77;15.35;;;2.00;99.90;;;;;;5071687;28;20024;-76
2022/03/03 05:17:46;;;;;;;21.02;12.82;;;2.00;99.90;;;;;;5072345;28;20427;-77
2022/03/03 05:20:15;;;;;;;20.67;12.57;;;2.00;99.90;;;;;;5071976;28;20024;-76
2022/03/03 05:22:41;;;;;;;23.38;14.57;;;2.00;99.90;;;;;;5072333;28;20093;-76
2022/03/03 05:25:08;;;;;;;24.13;13.45;;;2.00;99.90;;;;;;5072514;28;20071;-76
2022/03/03 05:27:33;;;;;;;24.10;13.93;;;1.90;99.90;;;;;;5072238;28;20028;-76
2022/03/03 05:29:59;;;;;;;23.23;13.68;;;2.00;99.90;;;;;;5073578;28;20041;-77
2022/03/03 05:32:26;;;;;;;24.85;14.68;;;1.90;99.90;;;;;;5073356;28;20024;-77
2022/03/03 05:34:52;;;;;;;24.40;13.60;;;1.90;99.90;;;;;;5072318;28;20028;-77
2022/03/03 05:37:22;;;;;;;25.42;14.65;;;1.90;99.90;;;;;;5072739;28;20020;-76
2022/03/03 05:39:48;;;;;;;23.92;13.27;;;1.90;99.90;;;;;;5073371;28;20580;-76
2022/03/03 05:42:14;;;;;;;26.45;15.48;;;1.90;99.90;;;;;;5072704;28;20087;-76
2022/03/03 05:44:41;;;;;;;25.50;13.43;;;1.80;99.90;;;;;;5072696;28;20386;-76
2022/03/03 05:47:07;;;;;;;24.15;13.75;;;1.90;99.90;;;;;;5072508;28;20082;-76
2022/03/03 05:49:33;;;;;;;25.67;13.65;;;1.80;99.90;;;;;;5072292;28;20032;-76
2022/03/03 05:51:59;;;;;;;22.75;13.70;;;1.80;99.90;;;;;;5073079;28;20040;-76
2022/03/03 05:54:25;;;;;;;25.95;14.52;;;1.90;99.90;;;;;;5072256;28;20034;-76
2022/03/03 05:56:53;;;;;;;23.08;13.25;;;1.80;99.90;;;;;;5072169;28;20377;-76
2022/03/03 05:59:22;;;;;;;24.15;14.10;;;1.90;99.90;;;;;;5072329;28;20033;-76
2022/03/03 06:01:49;;;;;;;26.85;13.60;;;1.80;99.90;;;;;;5072142;28;20032;-76
2022/03/03 06:04:16;;;;;;;28.50;14.45;;;1.80;99.90;;;;;;5071225;28;20048;-76
2022/03/03 06:07:12;;;;;;;25.38;14.05;;;1.80;99.90;;;;;;5072367;28;20029;-76
2022/03/03 06:09:38;;;;;;;23.80;14.15;;;1.80;99.90;;;;;;5050897;28;20040;-75
2022/03/03 06:12:07;;;;;;;25.77;14.90;;;1.80;99.90;;;;;;5071749;28;20028;-76
2022/03/03 06:14:47;;;;;;;23.50;13.50;;;1.80;99.90;;;;;;5071825;28;20125;-76
2022/03/03 06:17:14;;;;;;;28.00;14.60;;;1.70;99.90;;;;;;5071539;28;20123;-76
2022/03/03 06:19:41;;;;;;;25.88;14.55;;;1.70;99.90;;;;;;5074858;28;20044;-75
2022/03/03 06:22:09;;;;;;;26.25;13.93;;;1.60;99.90;;;;;;5075379;28;20174;-75
2022/03/03 06:24:35;;;;;;;22.52;13.25;;;1.60;99.90;;;;;;5087348;28;20016;-76
2022/03/03 06:27:01;;;;;;;20.70;13.60;;;1.70;99.90;;;;;;5087958;28;20514;-74
2022/03/03 06:29:27;;;;;;;26.35;14.15;;;1.60;99.90;;;;;;5094004;28;20040;-76
2022/03/03 06:31:53;;;;;;;23.75;14.27;;;1.70;99.90;;;;;;5093309;28;20016;-75
2022/03/03 06:34:20;;;;;;;24.50;13.65;;;1.60;99.90;;;;;;5092702;28;20039;-76
2022/03/03 06:36:46;;;;;;;24.23;14.25;;;1.60;99.90;;;;;;5093064;28;20039;-76
2022/03/03 06:39:12;;;;;;;25.83;14.65;;;1.60;99.90;;;;;;5088907;28;20106;-75
2022/03/03 06:41:38;;;;;;;26.55;14.18;;;1.60;99.90;;;;;;5094117;28;20026;-76
2022/03/03 06:44:05;;;;;;;24.60;14.48;;;1.60;99.90;;;;;;5094107;28;20016;-76
2022/03/03 06:46:30;;;;;;;25.45;14.40;;;1.60;99.90;;;;;;5092786;28;20378;-75
2022/03/03 06:48:56;;;;;;;22.08;13.30;;;1.50;99.90;;;;;;5093893;28;20468;-77
2022/03/03 06:51:27;;;;;;;22.92;13.75;;;1.60;99.90;;;;;;5093439;28;20456;-76
2022/03/03 06:53:57;;;;;;;24.42;14.30;;;2.30;99.90;;;;;;5073431;28;20052;-77
2022/03/03 06:56:25;;;;;;;27.30;15.02;;;1.70;99.90;;;;;;5073615;28;20028;-76
2022/03/03 06:58:53;;;;;;;25.83;14.52;;;1.60;99.90;;;;;;5072828;28;20688;-77
2022/03/03 07:01:24;;;;;;;25.92;14.18;;;1.70;99.90;;;;;;5078658;28;20164;-75
2022/03/03 07:03:51;;;;;;;22.23;14.57;;;1.70;99.90;;;;;;5073654;28;20048;-75
2022/03/03 07:06:17;;;;;;;20.20;13.00;;;1.80;99.90;;;;;;5075451;28;20023;-75
2022/03/03 07:08:43;;;;;;;25.73;14.45;;;1.80;99.90;;;;;;5073364;28;20054;-76
2022/03/03 07:11:10;;;;;;;24.48;13.85;;;1.80;99.90;;;;;;5073033;28;20023;-76
2022/03/03 07:13:37;;;;;;;29.20;14.63;;;1.90;99.90;;;;;;5072622;28;20025;-75
2022/03/03 07:16:22;;;;;;;22.33;14.13;;;2.00;99.90;;;;;;5074046;28;20055;-75
2022/03/03 07:18:51;;;;;;;27.80;14.50;;;2.10;99.90;;;;;;5074328;28;20058;-75
2022/03/03 07:21:28;;;;;;;23.07;14.47;;;2.10;99.90;;;;;;5083359;28;20606;-75
2022/03/03 07:24:34;;;;;;;28.23;13.93;;;2.20;99.90;;;;;;5090162;28;20047;-75
2022/03/03 07:27:04;;;;;;;29.52;14.23;;;2.20;99.90;;;;;;4988122;28;20026;-75
2022/03/03 07:29:31;;;;;;;28.20;15.67;;;2.30;99.90;;;;;;5057651;28;20518;-75
2022/03/03 07:31:59;;;;;;;23.15;14.00;;;2.30;99.90;;;;;;5075822;28;20044;-76
2022/03/03 07:34:36;;;;;;;24.90;14.82;;;2.40;99.90;;;;;;5076925;28;20040;-84
2022/03/03 07:37:10;;;;;;;26.17;15.10;;;2.50;99.90;;;;;;5092108;28;20555;-84
2022/03/03 07:39:41;;;;;;;24.30;14.52;;;2.60;99.90;;;;;;5094041;28;20020;-84
2022/03/03 07:42:17;;;;;;;22.98;14.75;;;2.60;99.90;;;;;;5080317;28;20028;-83
2022/03/03 07:44:44;;;;;;;23.58;13.30;;;2.70;99.90;;;;;;5082630;28;20020;-84
2022/03/03 07:47:10;;;;;;;24.60;13.48;;;2.80;99.90;;;;;;5086305;28;20026;-84
2022/03/03 07:49:40;;;;;;;22.67;14.00;;;2.90;99.90;;;;;;5092997;28;20032;-83
2022/03/03 07:52:07;;;;;;;21.83;14.13;;;2.90;99.90;;;;;;5099683;28;20032;-86
2022/03/03 07:54:34;;;;;;;24.48;14.05;;;3.00;99.90;;;;;;5097839;28;20054;-82
2022/03/03 07:57:01;;;;;;;21.17;14.35;;;3.00;99.90;;;;;;5097534;28;20032;-82
2022/03/03 07:59:34;;;;;;;24.25;14.20;;;3.00;99.90;;;;;;5097590;28;20414;-84
2022/03/03 08:02:05;;;;;;;24.00;14.23;;;3.10;99.90;;;;;;5097953;28;20593;-84
2022/03/03 08:04:33;;;;;;;26.05;13.98;;;3.20;99.90;;;;;;5097705;28;20135;-84
2022/03/03 08:07:07;;;;;;;23.58;13.70;;;3.30;99.90;;;;;;5095755;28;20028;-82
2022/03/03 08:09:34;;;;;;;25.05;15.32;;;3.30;99.90;;;;;;5096976;28;20046;-81
2022/03/03 08:12:03;;;;;;;21.95;14.45;;;3.30;99.90;;;;;;5097073;28;20078;-83
2022/03/03 08:14:31;;;;;;;27.15;14.60;;;3.40;99.90;;;;;;5079035;28;20036;-79
2022/03/03 08:16:56;;;;;;;22.25;13.52;;;3.50;99.90;;;;;;5092060;28;20476;-82
2022/03/03 08:19:24;;;;;;;22.80;14.98;;;3.50;99.90;;;;;;5096941;28;20034;-83
2022/03/03 08:21:51;;;;;;;26.83;14.80;;;3.50;99.90;;;;;;5078835;28;20082;-83
2022/03/03 08:24:17;;;;;;;23.67;14.13;;;3.50;99.90;;;;;;5075419;28;20082;-81
2022/03/03 08:26:45;;;;;;;24.67;14.95;;;3.50;99.90;;;;;;5080226;28;20032;-81
2022/03/03 08:29:11;;;;;;;28.42;15.65;;;3.60;99.90;;;;;;5074024;28;20050;-83
2022/03/03 08:31:45;;;;;;;26.23;14.05;;;3.70;99.90;;;;;;5094425;28;20016;-79
2022/03/03 08:34:33;;;;;;;28.60;14.75;;;3.70;99.90;;;;;;5106306;28;20038;-79
2022/03/03 08:37:00;;;;;;;21.95;13.80;;;3.80;99.90;;;;;;5097305;28;20023;-80
2022/03/03 08:39:28;;;;;;;22.55;14.23;;;3.90;99.90;;;;;;5099365;28;20028;-78
2022/03/03 08:41:59;;;;;;;28.10;14.95;;;3.90;99.90;;;;;;5098096;28;20039;-80
2022/03/03 08:44:32;;;;;;;;;;;4.00;99.90;;;;;;5107453;28;20024;-80
2022/03/03 08:46:58;;;;;;;27.75;14.35;;;4.10;99.90;;;;;;5095620;28;19951;-80
2022/03/03 08:49:32;;;;;;;22.73;13.73;;;4.10;99.90;;;;;;5102917;28;20071;-79
2022/03/03 08:51:59;;;;;;;28.02;14.20;;;4.20;99.90;;;;;;5096751;28;20024;-83
2022/03/03 08:54:25;;;;;;;24.35;14.18;;;4.30;99.90;;;;;;5109788;28;20039;-82
2022/03/03 08:56:51;;;;;;;25.05;13.70;;;4.30;99.90;;;;;;5115243;28;20053;-82
2022/03/03 08:59:17;;;;;;;23.15;14.02;;;4.40;99.90;;;;;;5113886;28;20031;-77
2022/03/03 09:01:42;;;;;;;22.70;14.30;;;4.50;99.90;;;;;;5111285;28;20068;-79
2022/03/03 09:04:08;;;;;;;24.00;14.10;;;4.60;99.90;;;;;;5112172;28;20055;-79
2022/03/03 09:06:34;;;;;;;25.27;14.23;;;4.70;99.90;;;;;;5116170;28;20069;-84
2022/03/03 09:08:59;;;;;;;21.33;13.45;;;4.80;99.90;;;;;;5115174;28;20036;-76
2022/03/03 09:11:25;;;;;;;22.23;13.63;;;4.80;99.90;;;;;;5114505;28;20023;-80
2022/03/03 09:13:51;;;;;;;21.88;12.60;;;4.90;99.90;;;;;;5116189;28;20111;-77
2022/03/03 09:16:17;;;;;;;23.15;14.02;;;5.00;99.90;;;;;;5115445;28;20024;-76
2022/03/03 09:18:45;;;;;;;21.23;13.07;;;5.10;99.90;;;;;;5115957;28;20080;-79
2022/03/03 09:21:11;;;;;;;21.35;13.68;;;5.20;99.90;;;;;;5114479;28;20030;-79
2022/03/03 09:23:36;;;;;;;21.08;12.48;;;5.20;99.90;;;;;;5114004;28;20409;-81
2022/03/03 09:26:02;;;;;;;19.60;12.27;;;5.30;99.90;;;;;;5113721;28;20387;-80
2022/03/03 09:28:28;;;;;;;23.55;14.38;;;5.40;99.90;;;;;;5090083;28;20059;-84
2022/03/03 09:30:56;;;;;;;22.38;12.68;;;5.50;99.90;;;;;;5075825;28;20023;-85
2022/03/03 09:33:22;;;;;;;19.85;12.45;;;5.60;99.90;;;;;;5075457;28;20040;-85
2022/03/03 09:35:47;;;;;;;20.58;13.13;;;5.70;99.90;;;;;;5077709;28;20089;-84
2022/03/03 09:38:13;;;;;;;19.40;13.32;;;5.70;99.90;;;;;;5077894;28;20475;-81
2022/03/03 09:40:39;;;;;;;21.50;13.05;;;5.80;99.90;;;;;;5077052;28;20029;-82
2022/03/03 09:43:06;;;;;;;23.02;12.82;;;5.90;99.90;;;;;;5077450;28;20013;-82
2022/03/03 09:45:33;;;;;;;23.75;12.82;;;6.10;99.90;;;;;;5074002;28;20028;-81
2022/03/03 09:48:00;;;;;;;23.08;12.95;;;6.10;99.90;;;;;;5072907;28;20022;-80
2022/03/03 09:50:29;;;;;;;23.45;11.98;;;6.20;99.90;;;;;;5073226;28;20032;-81
2022/03/03 09:52:55;;;;;;;20.67;12.10;;;6.30;99.90;;;;;;5074489;28;20032;-82
2022/03/03 09:55:21;;;;;;;22.48;12.60;;;6.30;99.90;;;;;;5076752;28;20055;-82
2022/03/03 09:57:51;;;;;;;21.25;12.30;;;6.40;99.90;;;;;;5076784;28;20111;-82
2022/03/03 10:00:17;;;;;;;18.15;12.40;;;7.40;99.90;;;;;;5077448;28;20047;-82
2022/03/03 10:03:08;;;;;;;21.73;12.63;;;6.60;99.90;;;;;;5076556;28;20066;-82
2022/03/03 10:05:47;;;;;;;19.92;12.25;;;6.60;99.90;;;;;;5078502;28;20147;-81
2022/03/03 10:08:15;;;;;;;23.52;12.95;;;6.70;99.80;;;;;;5076993;28;20084;-81
2022/03/03 10:10:46;;;;;;;25.73;12.23;;;6.80;99.30;;;;;;5077439;28;20052;-84
2022/03/03 10:13:14;;;;;;;;;;;6.90;98.60;;;;;;5079267;28;20055;-80
2022/03/03 10:15:40;;;;;;;20.35;12.13;;;7.00;98.70;;;;;;5086140;28;19932;-81
2022/03/03 10:18:10;;;;;;;18.80;11.27;;;7.10;98.20;;;;;;5077061;28;20384;-82
2022/03/03 10:20:48;;;;;;;17.35;11.77;;;7.10;99.10;;;;;;5077018;28;20040;-81
2022/03/03 10:23:14;;;;;;;18.40;12.00;;;7.10;98.50;;;;;;5075430;28;20115;-82
2022/03/03 10:25:43;;;;;;;15.05;11.63;;;7.20;98.10;;;;;;5077792;28;20036;-81
2022/03/03 10:28:25;;;;;;;17.90;12.05;;;7.30;96.20;;;;;;5078758;28;20021;-84
2022/03/03 10:31:13;;;;;;;21.92;13.45;;;7.40;95.60;;;;;;5078411;28;20029;-83
2022/03/03 10:33:41;;;;;;;17.42;12.23;;;7.50;95.80;;;;;;5077028;28;20032;-80
2022/03/03 10:36:22;;;;;;;19.13;12.18;;;7.50;95.50;;;;;;5076624;28;20195;-81
2022/03/03 10:38:50;;;;;;;;;;;7.60;96.00;;;;;;5085533;28;20388;-77
2022/03/03 10:41:41;;;;;;;20.80;11.02;;;7.60;96.50;;;;;;5091139;28;19908;-80
2022/03/03 10:44:32;;;;;;;18.45;11.48;;;7.70;95.40;;;;;;5076909;28;20036;-80
2022/03/03 10:47:01;;;;;;;18.42;11.35;;;7.80;96.40;;;;;;5064895;28;20032;-80
2022/03/03 10:49:27;;;;;;;18.27;11.40;;;7.80;95.30;;;;;;5077305;28;20044;-80
2022/03/03 10:51:53;;;;;;;16.52;11.80;;;7.90;94.40;;;;;;5077022;28;20112;-80
2022/03/03 10:54:19;;;;;;;14.13;10.55;;;8.00;94.60;;;;;;5077207;28;20052;-79
2022/03/03 10:56:49;;;;;;;17.05;10.93;;;8.10;94.60;;;;;;5077881;28;20029;-80
2022/03/03 10:59:25;;;;;;;16.80;11.83;;;8.20;94.10;;;;;;5077410;28;20507;-80
2022/03/03 11:01:52;;;;;;;22.17;12.38;;;8.20;94.10;;;;;;5078348;28;20622;-81
2022/03/03 11:04:20;;;;;;;22.30;12.18;;;8.30;93.80;;;;;;5076357;28;20056;-81
2022/03/03 11:06:49;;;;;;;16.60;11.85;;;8.30;93.90;;;;;;5076442;28;20543;-81
2022/03/03 11:09:18;;;;;;;18.00;12.43;;;8.40;93.90;;;;;;5077088;28;20079;-81
2022/03/03 11:11:44;;;;;;;15.48;10.90;;;8.50;93.90;;;;;;5075885;28;20020;-80
2022/03/03 11:14:11;;;;;;;27.02;12.43;;;8.50;94.40;;;;;;5076943;28;20155;-80
2022/03/03 11:16:37;;;;;;;17.63;10.88;;;8.50;94.50;;;;;;5076011;28;20127;-81
2022/03/03 11:19:02;;;;;;;18.15;10.35;;;8.60;92.50;;;;;;5076464;28;20548;-81
2022/03/03 11:21:28;;;;;;;16.75;9.80;;;8.80;91.50;;;;;;5075932;28;20389;-80
2022/03/03 11:23:58;;;;;;;21.95;11.20;;;8.90;91.10;;;;;;5075852;28;20094;-80
2022/03/03 11:26:44;;;;;;;14.05;10.60;;;8.90;91.80;;;;;;5073679;28;20017;-81
2022/03/03 11:29:16;;;;;;;16.02;10.93;;;9.00;92.40;;;;;;5074625;28;20040;-80
2022/03/03 11:32:00;;;;;;;18.75;11.20;;;9.00;91.40;;;;;;5075149;28;20441;-80
2022/03/03 11:34:32;;;;;;;18.52;11.93;;;9.10;90.40;;;;;;5074002;28;20491;-80
2022/03/03 11:37:04;;;;;;;18.23;10.45;;;9.20;90.80;;;;;;5074998;28;20483;-81
2022/03/03 11:39:46;;;;;;;14.70;10.35;;;9.20;87.90;;;;;;5075339;28;20039;-77
2022/03/03 11:42:35;;;;;;;14.15;10.85;;;9.30;90.20;;;;;;5091506;28;20032;-80
2022/03/03 11:45:20;;;;;;;14.30;10.52;;;9.40;88.70;;;;;;5094551;28;20024;-79
2022/03/03 11:47:48;;;;;;;13.60;10.38;;;9.50;88.00;;;;;;5093371;28;20053;-73
2022/03/03 11:50:16;;;;;;;14.15;10.85;;;9.50;90.00;;;;;;5090839;28;20044;-78
2022/03/03 11:52:57;;;;;;;15.15;11.02;;;9.60;88.80;;;;;;5092420;28;20103;-81
2022/03/03 11:55:43;;;;;;;;;;;9.60;91.10;;;;;;5077500;28;20029;-80
2022/03/03 11:58:18;;;;;;;13.10;9.85;;;9.70;88.40;;;;;;5075093;28;19909;-80
2022/03/03 12:00:47;;;;;;;16.70;10.95;;;9.80;87.40;;;;;;5075273;28;20021;-80
2022/03/03 12:03:15;;;;;;;12.88;10.10;;;9.90;84.40;;;;;;5077240;28;20071;-81
2022/03/03 12:05:43;;;;;;;16.63;10.90;;;9.90;83.50;;;;;;5077683;28;20056;-80
2022/03/03 12:08:11;;;;;;;15.45;10.82;;;10.00;84.80;;;;;;5073557;28;20048;-80
2022/03/03 12:10:56;;;;;;;17.80;10.38;;;10.00;84.70;;;;;;5074536;28;20028;-80
2022/03/03 12:13:44;;;;;;;14.68;10.57;;;10.00;86.50;;;;;;5076295;28;20047;-81
2022/03/03 12:16:28;;;;;;;12.60;10.02;;;10.10;85.10;;;;;;5073398;28;20049;-80
2022/03/03 12:18:57;;;;;;;13.88;10.40;;;10.10;81.60;;;;;;5080751;28;20435;-80
2022/03/03 12:21:33;;;;;;;15.13;10.07;;;10.10;85.00;;;;;;5088797;28;20093;-81
2022/03/03 12:24:14;;;;;;;15.60;9.90;;;10.20;82.90;;;;;;5090778;28;20031;-80
2022/03/03 12:26:51;;;;;;;14.63;9.50;;;10.30;81.10;;;;;;5090096;28;20031;-80
2022/03/03 12:29:36;;;;;;;15.98;9.63;;;10.30;79.70;;;;;;5090361;28;20024;-80
2022/03/03 12:32:24;;;;;;;12.25;9.68;;;10.30;79.40;;;;;;5095042;28;20048;-81
2022/03/03 12:34:50;;;;;;;19.83;9.73;;;10.40;80.70;;;;;;5078871;28;20386;-80
2022/03/03 12:37:17;;;;;;;16.13;10.15;;;10.40;81.10;;;;;;5094307;28;20044;-81
2022/03/03 12:39:52;;;;;;;12.70;9.90;;;10.40;81.30;;;;;;5094883;28;20028;-81
2022/03/03 12:42:24;;;;;;;13.05;10.88;;;10.50;81.80;;;;;;5095029;28;20024;-81
2022/03/03 12:44:54;;;;;;;14.48;10.60;;;10.60;81.90;;;;;;5094748;28;20434;-80